Time;durP1;ratioP1;P1;durP2;ratioP2;P2;SDS_P1;SDS_P2;PMS_P1;PMS_P2;Temp;Humidity;BMP_temperature;BMP_pressure;BME280_temperature;BME280_humidity;BME280_pressure;Samples;Min_cycle;Max_cycle;Signal;HPM_P1;HPM_P2
2022/09/12 00:00:05;;;;;;;25.23;13.32;;;;;;;12.54;100.00;101562.56;5048267;28;20025;-81
2022/09/12 00:02:31;;;;;;;23.63;12.35;;;;;;;12.51;100.00;101562.78;5047574;28;20040;-81
2022/09/12 00:04:56;;;;;;;24.05;12.57;;;;;;;12.48;100.00;101554.06;5041519;28;20021;-81
2022/09/12 00:07:21;;;;;;;23.80;12.73;;;;;;;12.49;100.00;101547.66;5041800;28;20037;-81
2022/09/12 00:09:47;;;;;;;25.55;12.85;;;;;;;12.48;100.00;101544.13;5043819;28;20072;-81
2022/09/12 00:12:12;;;;;;;24.00;12.98;;;;;;;12.47;100.00;101552.31;5050461;28;20128;-81
2022/09/12 00:14:37;;;;;;;23.65;12.55;;;;;;;12.44;100.00;101548.00;5041174;28;20090;-81
2022/09/12 00:17:03;;;;;;;25.55;13.90;;;;;;;12.43;100.00;101537.31;5046971;28;20029;-81
2022/09/12 00:19:29;;;;;;;24.98;14.93;;;;;;;12.43;100.00;101543.59;5046472;28;20116;-81
2022/09/12 00:21:54;;;;;;;27.63;15.68;;;;;;;12.44;100.00;101544.44;5048267;28;20035;-81
2022/09/12 00:24:20;;;;;;;23.58;13.82;;;;;;;12.40;100.00;101539.28;5048997;28;20400;-81
2022/09/12 00:26:45;;;;;;;25.35;13.93;;;;;;;12.40;100.00;101541.09;5047278;28;20025;-81
2022/09/12 00:29:21;;;;;;;24.52;14.10;;;;;;;12.42;100.00;101544.56;5047583;28;20036;-81
2022/09/12 00:31:47;;;;;;;25.45;14.02;;;;;;;12.36;100.00;101539.59;5063283;28;20033;-81
2022/09/12 00:34:13;;;;;;;25.52;14.65;;;;;;;12.35;100.00;101537.88;5046258;28;20021;-81
2022/09/12 00:36:38;;;;;;;24.33;13.88;;;;;;;12.33;100.00;101532.59;5047396;28;20040;-81
2022/09/12 00:39:04;;;;;;;25.20;13.95;;;;;;;12.31;100.00;101536.34;5022594;28;20068;-81
2022/09/12 00:41:34;;;;;;;25.95;15.05;;;;;;;12.31;100.00;101530.97;5038476;28;20036;-81
2022/09/12 00:44:02;;;;;;;27.67;15.02;;;;;;;12.30;100.00;101530.09;5045802;28;20338;-81
2022/09/12 00:46:40;;;;;;;24.52;13.35;;;;;;;12.29;100.00;101525.69;5050416;28;20043;-81
2022/09/12 00:49:29;;;;;;;25.08;13.43;;;;;;;12.27;100.00;101526.75;5048523;28;20037;-81
2022/09/12 00:51:59;;;;;;;23.52;13.55;;;;;;;12.21;100.00;101528.03;5048538;28;20021;-81
2022/09/12 00:54:28;;;;;;;;;;;;;;;12.26;100.00;101530.44;5051366;28;20029;-81
2022/09/12 00:57:00;;;;;;;25.65;14.82;;;;;;;12.18;100.00;101528.25;5048921;28;19908;-81
2022/09/12 00:59:32;;;;;;;25.52;13.93;;;;;;;12.15;100.00;101515.88;5045714;28;20025;-81
2022/09/12 01:01:57;;;;;;;25.15;12.93;;;;;;;12.16;100.00;101517.56;5035547;28;20481;-81
2022/09/12 01:04:25;;;;;;;25.77;13.18;;;;;;;12.14;100.00;101511.44;5048160;28;20021;-81
2022/09/12 01:06:51;;;;;;;25.52;13.98;;;;;;;12.11;100.00;101511.66;5047771;28;20052;-81
2022/09/12 01:09:20;;;;;;;24.85;14.18;;;;;;;12.07;99.89;101502.06;5048909;28;20048;-81
2022/09/12 01:11:47;;;;;;;24.50;13.48;;;;;;;12.07;100.00;101502.06;5047702;28;20720;-81
2022/09/12 01:14:15;;;;;;;28.08;14.02;;;;;;;12.03;100.00;101498.69;5045793;28;20036;-81
2022/09/12 01:16:40;;;;;;;28.13;13.88;;;;;;;12.02;100.00;101499.69;5029726;28;20405;-81
2022/09/12 01:19:41;;;;;;;25.23;13.30;;;;;;;12.01;100.00;101497.94;5044605;28;20033;-81
2022/09/12 01:22:44;;;;;;;23.75;12.65;;;;;;;11.99;100.00;101494.50;5037404;28;20040;-81
2022/09/12 01:26:01;;;;;;;26.05;15.02;;;;;;;12.01;100.00;101491.72;5045564;28;20091;-81
2022/09/12 01:28:33;;;;;;;25.45;14.88;;;;;;;11.97;100.00;101487.50;5007417;28;20045;-81
2022/09/12 01:31:12;;;;;;;26.67;15.98;;;;;;;11.96;100.00;101489.34;5042937;28;20037;-81
2022/09/12 01:34:07;;;;;;;25.63;16.23;;;;;;;11.99;100.00;101499.91;5051111;28;20024;-81
2022/09/12 01:37:00;;;;;;;25.67;14.70;;;;;;;12.01;100.00;101489.03;5051652;28;20033;-81
2022/09/12 01:39:54;;;;;;;25.00;14.32;;;;;;;11.97;100.00;101484.81;5028690;28;20033;-81
2022/09/12 01:42:27;;;;;;;26.92;15.98;;;;;;;11.96;100.00;101488.47;5041761;28;20040;-81
2022/09/12 01:45:02;;;;;;;26.60;15.93;;;;;;;11.94;100.00;101490.41;5050961;28;20021;-81
2022/09/12 01:47:44;;;;;;;27.15;15.77;;;;;;;11.93;100.00;101494.03;5039201;28;20021;-81
2022/09/12 01:50:18;;;;;;;26.50;15.98;;;;;;;11.91;100.00;101487.91;5052852;28;20041;-81
2022/09/12 01:52:55;;;;;;;27.33;15.55;;;;;;;11.89;100.00;101488.84;5049041;28;20037;-81
2022/09/12 01:55:27;;;;;;;26.25;15.55;;;;;;;11.88;100.00;101479.03;5048717;28;20121;-81
2022/09/12 01:58:07;;;;;;;27.05;14.52;;;;;;;11.88;100.00;101475.50;5038374;28;20051;-81
2022/09/12 02:00:38;;;;;;;28.58;14.93;;;;;;;11.87;100.00;101468.38;5046291;28;20063;-81
2022/09/12 02:03:11;;;;;;;25.27;15.13;;;;;;;11.85;100.00;101465.78;5049260;28;20044;-81
2022/09/12 02:05:43;;;;;;;27.65;15.50;;;;;;;11.84;100.00;101455.97;5050795;28;20090;-81
2022/09/12 02:08:15;;;;;;;26.25;15.57;;;;;;;11.83;100.00;101458.78;5051151;28;20060;-81
2022/09/12 02:10:48;;;;;;;25.40;14.10;;;;;;;11.78;100.00;101459.09;5050976;28;20144;-81
2022/09/12 02:13:36;;;;;;;25.65;15.00;;;;;;;11.77;100.00;101446.63;5050688;28;20266;-81
2022/09/12 02:16:10;;;;;;;27.45;15.27;;;;;;;11.75;100.00;101447.69;5040739;28;20036;-81
2022/09/12 02:18:40;;;;;;;25.63;14.02;;;;;;;11.73;100.00;101453.19;5051565;28;20025;-81
2022/09/12 02:21:06;;;;;;;28.30;15.75;;;;;;;11.69;100.00;101454.34;5049763;28;20029;-81
2022/09/12 02:23:36;;;;;;;26.98;14.93;;;;;;;11.72;100.00;101452.28;5050379;28;20028;-81
2022/09/12 02:26:24;;;;;;;27.08;16.33;;;;;;;11.72;100.00;101459.53;5049736;28;20037;-81
2022/09/12 02:28:50;;;;;;;25.52;14.88;;;;;;;11.69;100.00;101460.59;5052611;28;20472;-81
2022/09/12 02:31:36;;;;;;;26.38;15.52;;;;;;;11.70;100.00;101461.47;5048719;28;20052;-81
2022/09/12 02:34:12;;;;;;;27.77;15.63;;;;;;;11.69;100.00;101462.44;5048970;28;20040;-81
2022/09/12 02:37:04;;;;;;;26.95;15.23;;;;;;;11.68;100.00;101460.69;5049852;28;20029;-81
2022/09/12 02:39:30;;;;;;;24.33;13.77;;;;;;;11.64;100.00;101456.47;5024019;28;20493;-81
2022/09/12 02:41:59;;;;;;;26.35;14.75;;;;;;;11.64;100.00;101453.78;5045811;28;20119;-81
2022/09/12 02:44:27;;;;;;;26.70;14.35;;;;;;;11.63;100.00;101450.25;5044735;28;20399;-81
2022/09/12 02:47:17;;;;;;;26.13;13.90;;;;;;;11.65;100.00;101444.75;5050068;28;20337;-81
2022/09/12 02:49:43;;;;;;;26.17;15.25;;;;;;;11.65;100.00;101442.91;5051793;28;20025;-81
2022/09/12 02:52:08;;;;;;;27.15;15.60;;;;;;;11.65;100.00;101442.06;5050535;28;20090;-81
2022/09/12 02:54:34;;;;;;;26.95;15.15;;;;;;;11.62;100.00;101440.44;5049513;28;20025;-81
2022/09/12 02:56:59;;;;;;;26.67;15.70;;;;;;;11.63;100.00;101441.31;5033808;28;20086;-81
2022/09/12 02:59:25;;;;;;;25.33;15.48;;;;;;;11.60;100.00;101434.31;5039162;28;20024;-82
2022/09/12 03:02:50;;;;;;;28.23;15.20;;;;;;;11.63;100.00;101439.47;5048304;28;20448;-82
2022/09/12 03:05:33;;;;;;;27.67;16.58;;;;;;;11.60;100.00;101428.06;4997718;28;20454;-81
2022/09/12 03:08:14;;;;;;;26.88;15.40;;;;;;;11.62;100.00;101426.13;4991205;28;20522;-81
2022/09/12 03:11:04;;;;;;;30.05;17.60;;;;;;;11.60;100.00;101428.06;4992973;28;20100;-81
2022/09/12 03:13:43;;;;;;;26.92;16.75;;;;;;;11.62;100.00;101426.13;4991790;28;20042;-81
2022/09/12 03:16:18;;;;;;;30.10;18.77;;;;;;;11.62;100.00;101431.50;5007946;28;20084;-81
2022/09/12 03:19:05;;;;;;;34.90;18.33;;;;;;;11.63;100.00;101426.00;4995008;28;20058;-81
2022/09/12 03:21:42;;;;;;;28.38;16.77;;;;;;;11.62;100.00;101426.13;4978477;28;20061;-81
2022/09/12 03:24:19;;;;;;;27.50;16.67;;;;;;;11.61;100.00;101419.88;5009180;28;20035;-81
2022/09/12 03:27:00;;;;;;;26.75;14.98;;;;;;;11.61;100.00;101419.00;4993163;28;20128;-81
2022/09/12 03:29:28;;;;;;;27.00;16.75;;;;;;;11.59;100.00;101420.94;4992263;28;20041;-81
2022/09/12 03:31:57;;;;;;;28.33;16.48;;;;;;;11.58;100.00;101420.09;5009367;28;20033;-81
2022/09/12 03:34:24;;;;;;;27.10;16.15;;;;;;;11.58;100.00;101419.22;5008037;28;20485;-81
2022/09/12 03:36:51;;;;;;;27.27;16.50;;;;;;;11.57;100.00;101423.75;5031159;28;20049;-81
2022/09/12 03:39:17;;;;;;;27.88;15.50;;;;;;;11.57;100.00;101418.38;5014755;28;20168;-81
2022/09/12 03:41:42;;;;;;;26.45;15.00;;;;;;;11.58;100.00;101414.72;5043030;28;20029;-81
2022/09/12 03:44:08;;;;;;;27.27;15.65;;;;;;;11.58;100.00;101416.53;5047900;28;20083;-81
2022/09/12 03:46:33;;;;;;;26.08;14.63;;;;;;;11.60;100.00;101420.00;5053817;28;20417;-81
2022/09/12 03:48:58;;;;;;;27.75;16.48;;;;;;;11.56;100.00;101421.16;5051235;28;20444;-81
2022/09/12 03:51:24;;;;;;;24.02;14.10;;;;;;;11.56;100.00;101416.63;5049277;28;20028;-81
2022/09/12 03:53:49;;;;;;;24.60;14.60;;;;;;;11.58;100.00;101412.03;5043683;28;20043;-81
2022/09/12 03:56:14;;;;;;;26.27;14.48;;;;;;;11.57;100.00;101412.97;5047895;28;20390;-81
2022/09/12 03:58:40;;;;;;;25.83;14.88;;;;;;;11.57;100.00;101412.09;5040770;28;20017;-81
2022/09/12 04:01:14;;;;;;;26.05;14.73;;;;;;;11.57;100.00;101407.59;5049964;28;20032;-81
2022/09/12 04:03:40;;;;;;;27.02;15.88;;;;;;;11.57;100.00;101401.31;5045307;28;20040;-81
2022/09/12 04:06:07;;;;;;;28.48;14.38;;;;;;;11.57;100.00;101404.03;5028057;28;20041;-81
2022/09/12 04:08:36;;;;;;;28.58;16.73;;;;;;;11.57;100.00;101391.44;5040628;28;20361;-81
2022/09/12 04:11:04;;;;;;;29.10;15.65;;;;;;;11.58;100.00;101395.88;5048216;28;20081;-81
2022/09/12 04:13:29;;;;;;;27.98;15.88;;;;;;;11.56;100.00;101400.47;5047212;28;20043;-81
2022/09/12 04:15:56;;;;;;;27.73;16.02;;;;;;;11.57;100.00;101396.81;5064937;28;20112;-81
2022/09/12 04:18:22;;;;;;;26.80;15.80;;;;;;;11.58;100.00;101394.97;5049906;28;20027;-81
2022/09/12 04:20:47;;;;;;;27.67;15.45;;;;;;;11.58;100.00;101395.88;5035484;28;20030;-81
2022/09/12 04:23:12;;;;;;;27.08;16.08;;;;;;;11.59;100.00;101394.03;5036921;28;20049;-81
2022/09/12 04:25:37;;;;;;;28.95;17.10;;;;;;;11.59;100.00;101394.03;5047321;28;20445;-81
2022/09/12 04:28:03;;;;;;;28.92;16.42;;;;;;;11.60;100.00;101387.69;5048018;28;20028;-81
2022/09/12 04:30:28;;;;;;;27.17;16.10;;;;;;;11.60;100.00;101385.00;5040258;28;20035;-81
2022/09/12 04:32:53;;;;;;;30.38;17.52;;;;;;;11.60;100.00;101385.84;5047947;28;20570;-81
2022/09/12 04:35:19;;;;;;;29.05;17.17;;;;;;;11.63;100.00;101382.09;5046882;28;20094;-81
2022/09/12 04:37:44;;;;;;;27.40;16.23;;;;;;;11.63;100.00;101379.38;5034745;28;20056;-81
2022/09/12 04:40:09;;;;;;;27.83;16.25;;;;;;;11.64;100.00;101391.84;5025340;28;20018;-81
2022/09/12 04:42:35;;;;;;;27.60;15.38;;;;;;;11.64;100.00;101381.97;5040646;28;20449;-81
2022/09/12 04:45:00;;;;;;;27.55;16.63;;;;;;;11.67;100.00;101375.50;5039760;28;20029;-81
2022/09/12 04:47:25;;;;;;;32.45;18.42;;;;;;;11.71;100.00;101379.69;5042611;28;20037;-81
2022/09/12 04:49:51;;;;;;;31.98;17.60;;;;;;;11.69;100.00;101376.25;5038218;28;20128;-81
2022/09/12 04:52:16;;;;;;;30.55;17.83;;;;;;;11.72;100.00;101378.75;5037011;28;20044;-81
2022/09/12 04:54:41;;;;;;;30.85;19.10;;;;;;;11.73;100.00;101385.84;5041843;28;20052;-81
2022/09/12 04:57:07;;;;;;;33.47;19.25;;;;;;;11.72;100.00;101382.28;5039513;28;20025;-81
2022/09/12 04:59:32;;;;;;;32.72;19.25;;;;;;;11.70;100.00;101378.84;5043947;28;20712;-82
2022/09/12 05:01:57;;;;;;;29.98;18.73;;;;;;;11.71;100.00;101377.00;5038881;28;20041;-82
2022/09/12 05:04:23;;;;;;;31.63;18.58;;;;;;;11.72;100.00;101381.44;5040699;28;20055;-81
2022/09/12 05:06:48;;;;;;;28.15;17.73;;;;;;;11.73;100.00;101380.47;5039990;28;20504;-81
2022/09/12 05:09:14;;;;;;;31.25;19.02;;;;;;;11.76;100.00;101374.88;5040852;28;20108;-81
2022/09/12 05:11:42;;;;;;;33.60;19.88;;;;;;;11.75;100.00;101383.91;5060286;28;20049;-81
2022/09/12 05:14:09;;;;;;;30.60;18.42;;;;;;;11.77;100.00;101379.28;5037601;28;20025;-81
2022/09/12 05:16:35;;;;;;;31.15;19.45;;;;;;;11.76;100.00;101382.06;5036263;28;20407;-81
2022/09/12 05:19:00;;;;;;;31.15;19.30;;;;;;;11.77;100.00;101389.19;5043505;28;20017;-81
2022/09/12 05:21:26;;;;;;;32.22;19.80;;;;;;;11.77;100.00;101381.09;5040022;28;20357;-81
2022/09/12 05:23:52;;;;;;;36.78;21.15;;;;;;;11.77;100.00;101390.06;5040762;28;20037;-81
2022/09/12 05:26:19;;;;;;;33.63;19.70;;;;;;;11.80;100.00;101384.47;5036972;28;20043;-82
2022/09/12 05:28:48;;;;;;;30.30;19.85;;;;;;;11.82;100.00;101389.75;5037704;28;20584;-82
2022/09/12 05:31:23;;;;;;;32.95;20.88;;;;;;;11.83;100.00;101395.03;5042216;28;20102;-82
2022/09/12 05:33:50;;;;;;;30.10;19.10;;;;;;;11.82;100.00;101385.22;5040299;28;20044;-82
2022/09/12 05:36:26;;;;;;;31.30;19.95;;;;;;;11.82;100.00;101379.81;5040074;28;20037;-82
2022/09/12 05:38:52;;;;;;;31.42;19.88;;;;;;;11.84;100.00;101379.72;5028792;28;20032;-81
2022/09/12 05:41:20;;;;;;;30.52;20.83;;;;;;;11.87;100.00;101387.56;5034485;28;20065;-81
2022/09/12 05:43:49;;;;;;;30.63;19.38;;;;;;;11.89;100.00;101385.66;5041481;28;20029;-82
2022/09/12 05:46:17;;;;;;;29.73;19.02;;;;;;;11.93;100.00;101386.28;5044436;28;20095;-82
2022/09/12 05:48:44;;;;;;;34.42;20.38;;;;;;;11.95;100.00;101384.38;5042291;28;20129;-82
2022/09/12 05:51:18;;;;;;;31.55;20.92;;;;;;;11.97;100.00;101387.81;5045615;28;20385;-82
2022/09/12 05:53:45;;;;;;;31.77;19.75;;;;;;;12.01;100.00;101392.03;5044043;28;20028;-82
2022/09/12 05:56:19;;;;;;;30.90;19.92;;;;;;;12.03;100.00;101392.78;5042221;28;20437;-82
2022/09/12 05:58:47;;;;;;;33.95;22.48;;;;;;;12.05;100.00;101398.94;5042136;28;20447;-82
2022/09/12 06:01:14;;;;;;;33.30;20.88;;;;;;;12.10;100.00;101395.91;5042335;28;20020;-82
2022/09/12 06:03:51;;;;;;;30.55;20.50;;;;;;;12.12;100.00;101402.88;5041829;28;20040;-82
2022/09/12 06:06:19;;;;;;;30.60;20.17;;;;;;;12.16;100.00;101407.09;5045140;28;20393;-82
2022/09/12 06:08:50;;;;;;;31.80;20.95;;;;;;;12.20;100.00;101405.91;5040349;28;20060;-82
2022/09/12 06:11:21;;;;;;;33.60;21.25;;;;;;;12.23;100.00;101412.91;5041269;28;20067;-82
2022/09/12 06:13:47;;;;;;;33.03;20.33;;;;;;;12.28;100.00;101405.34;5045133;28;20052;-82
2022/09/12 06:16:21;;;;;;;33.10;19.73;;;;;;;12.31;100.00;101407.81;5046691;28;20071;-82
2022/09/12 06:18:49;;;;;;;31.70;20.95;;;;;;;12.36;100.00;101405.69;5042516;28;20063;-82
2022/09/12 06:21:15;;;;;;;34.05;20.70;;;;;;;12.39;100.00;101410.00;5042677;28;20025;-82
2022/09/12 06:23:40;;;;;;;32.00;19.98;;;;;;;12.42;100.00;101404.38;5045699;28;20108;-82
2022/09/12 06:26:09;;;;;;;33.05;21.52;;;;;;;12.44;100.00;101402.41;5033245;28;20101;-83
2022/09/12 06:28:36;;;;;;;36.85;21.95;;;;;;;12.46;100.00;101400.50;5039409;28;20392;-83
2022/09/12 06:31:07;;;;;;;33.72;21.10;;;;;;;12.48;100.00;101400.38;5045864;28;20488;-82
2022/09/12 06:33:34;;;;;;;34.22;21.58;;;;;;;12.47;100.00;101399.50;5044752;28;20045;-82
2022/09/12 06:36:03;;;;;;;34.17;21.73;;;;;;;12.52;100.00;101394.66;5042368;28;20520;-82
2022/09/12 06:38:30;;;;;;;32.60;21.73;;;;;;;12.54;100.00;101395.38;5037645;28;20036;-82
2022/09/12 06:40:56;;;;;;;34.05;22.00;;;;;;;12.58;100.00;101396.88;5039638;28;20029;-82
2022/09/12 06:43:21;;;;;;;32.20;20.63;;;;;;;12.65;100.00;101396.44;5036401;28;20028;-82
2022/09/12 06:45:50;;;;;;;32.85;21.65;;;;;;;12.71;100.00;101393.31;5038366;28;20025;-82
2022/09/12 06:48:15;;;;;;;33.90;21.85;;;;;;;12.81;100.00;101398.88;5040796;28;20499;-82
2022/09/12 06:50:40;;;;;;;39.40;23.08;;;;;;;12.88;100.00;101392.88;5031313;28;20122;-82
2022/09/12 06:53:06;;;;;;;37.63;21.23;;;;;;;12.95;100.00;101393.31;5037825;28;20141;-82
2022/09/12 06:55:32;;;;;;;32.45;20.17;;;;;;;12.99;100.00;101392.09;5031165;28;20147;-82
2022/09/12 06:57:58;;;;;;;37.42;21.45;;;;;;;13.05;100.00;101396.19;5029506;28;20414;-82
2022/09/12 07:00:23;;;;;;;32.78;20.23;;;;;;;13.10;100.00;101397.56;5031864;28;20109;-82
2022/09/12 07:02:52;;;;;;;33.25;20.77;;;;;;;13.16;100.00;101404.31;5043180;28;20101;-82
2022/09/12 07:05:18;;;;;;;32.17;20.73;;;;;;;13.19;100.00;101395.13;5032865;28;20380;-82
2022/09/12 07:07:43;;;;;;;33.15;20.75;;;;;;;13.22;100.00;101395.78;5030271;28;20040;-82
2022/09/12 07:10:10;;;;;;;33.85;22.17;;;;;;;13.27;100.00;101401.66;5032532;28;20369;-83
2022/09/12 07:12:36;;;;;;;34.25;21.30;;;;;;;13.33;100.00;101391.41;5036399;28;20020;-82
2022/09/12 07:15:01;;;;;;;31.88;20.48;;;;;;;13.40;100.00;101400.78;5049263;28;20043;-82
2022/09/12 07:17:26;;;;;;;33.15;21.73;;;;;;;13.45;100.00;101401.28;5050113;28;20484;-82
2022/09/12 07:19:51;;;;;;;34.50;21.48;;;;;;;13.50;100.00;101384.72;5050603;28;20022;-82
2022/09/12 07:22:17;;;;;;;35.33;21.17;;;;;;;13.58;100.00;101387.69;5049426;28;20495;-82
2022/09/12 07:24:44;;;;;;;32.35;21.80;;;;;;;13.60;100.00;101383.03;5030600;28;20052;-83
2022/09/12 07:27:09;;;;;;;31.85;20.70;;;;;;;13.68;100.00;101382.44;5032007;28;20033;-83
2022/09/12 07:29:35;;;;;;;33.72;22.05;;;;;;;13.76;100.00;101374.59;5044922;28;20506;-83
2022/09/12 07:32:01;;;;;;;31.58;20.25;;;;;;;13.83;100.00;101378.53;5049570;28;20494;-83
2022/09/12 07:34:26;;;;;;;30.85;21.38;;;;;;;13.91;100.00;101376.09;5049441;28;20029;-83
2022/09/12 07:36:51;;;;;;;32.60;21.77;;;;;;;13.93;100.00;101376.81;5049466;28;20499;-83
2022/09/12 07:39:17;;;;;;;33.90;21.02;;;;;;;14.02;100.00;101377.09;5049296;28;20023;-82
2022/09/12 07:41:42;;;;;;;34.80;21.63;;;;;;;14.07;100.00;101386.56;5045315;28;20128;-83
2022/09/12 07:44:07;;;;;;;32.30;21.25;;;;;;;14.13;100.00;101387.91;5042770;28;20079;-83
2022/09/12 07:46:34;;;;;;;31.83;20.80;;;;;;;14.20;100.00;101391.81;5029868;28;20038;-82
2022/09/12 07:49:00;;;;;;;33.25;21.77;;;;;;;14.26;100.00;101396.75;5030216;28;20040;-82
2022/09/12 07:51:27;;;;;;;34.97;21.27;;;;;;;14.32;100.00;101390.00;5043630;28;20542;-82
2022/09/12 07:53:53;;;;;;;36.45;22.58;;;;;;;14.37;100.00;101392.31;5051475;28;20032;-83
2022/09/12 07:56:20;;;;;;;33.70;21.40;;;;;;;14.43;100.00;101400.78;5049874;28;20453;-83
2022/09/12 07:58:45;;;;;;;31.75;19.50;;;;;;;14.48;100.00;101398.56;5049997;28;20364;-82
2022/09/12 08:01:14;;;;;;;33.53;20.52;;;;;;;14.54;100.00;101402.63;5044113;28;20195;-83
2022/09/12 08:03:40;;;;;;;35.08;20.95;;;;;;;14.61;100.00;101393.06;5049503;28;20047;-82
2022/09/12 08:06:07;;;;;;;32.83;22.02;;;;;;;14.68;100.00;101383.47;5048117;28;20036;-83
2022/09/12 08:08:33;;;;;;;31.38;21.50;;;;;;;14.73;100.00;101383.09;5049944;28;20488;-83
2022/09/12 08:11:01;;;;;;;33.53;20.25;;;;;;;14.79;100.00;101384.41;5049503;28;20053;-83
2022/09/12 08:13:29;;;;;;;32.47;20.38;;;;;;;14.82;100.00;101393.13;5049909;28;20416;-84
2022/09/12 08:15:59;;;;;;;30.63;19.20;;;;;;;14.88;100.00;101386.34;5050384;28;20032;-83
2022/09/12 08:18:26;;;;;;;32.00;19.67;;;;;;;14.93;100.00;101391.38;5042063;28;20022;-84
2022/09/12 08:20:59;;;;;;;36.40;20.25;;;;;;;14.98;100.00;101392.72;5049317;28;20021;-83
2022/09/12 08:23:26;;;;;;;30.77;19.40;;;;;;;15.02;100.00;101396.91;5050448;28;20033;-83
2022/09/12 08:25:55;;;;;;;33.20;19.30;;;;;;;15.07;100.00;101403.78;5042072;28;20029;-83
2022/09/12 08:28:20;;;;;;;30.57;20.80;;;;;;;15.18;100.00;101401.88;5031945;28;20133;-83
2022/09/12 08:30:45;;;;;;;29.00;19.45;;;;;;;15.17;100.00;101412.84;5036201;28;20029;-83
2022/09/12 08:33:10;;;;;;;31.20;19.35;;;;;;;15.24;100.00;101414.03;5049017;28;20096;-83
2022/09/12 08:35:36;;;;;;;35.78;21.45;;;;;;;15.33;100.00;101404.25;5049747;28;20029;-83
2022/09/12 08:38:01;;;;;;;32.88;20.80;;;;;;;15.35;100.00;101411.28;5049593;28;20045;-83
2022/09/12 08:40:26;;;;;;;30.08;18.75;;;;;;;15.40;100.00;101399.19;5049325;28;20051;-83
2022/09/12 08:43:24;;;;;;;33.53;21.17;;;;;;;15.50;100.00;101406.41;5051006;28;20029;-83
2022/09/12 08:46:01;;;;;;;31.88;20.83;;;;;;;15.55;100.00;101408.75;5047834;28;20472;-83
2022/09/12 08:48:26;;;;;;;32.05;20.23;;;;;;;15.62;100.00;101398.22;5041711;28;20079;-83
2022/09/12 08:50:51;;;;;;;30.92;20.25;;;;;;;15.66;100.00;101403.22;5050013;28;20400;-83
2022/09/12 08:53:23;;;;;;;27.95;16.02;;;;;;;15.68;100.00;101403.97;5051071;28;20107;-83
2022/09/12 08:55:54;;;;;;;28.48;19.10;;;;;;;15.76;100.00;101400.59;5048165;28;20100;-82
2022/09/12 08:58:21;;;;;;;28.65;19.38;;;;;;;15.82;100.00;101396.53;5041435;28;20064;-83
2022/09/12 09:00:59;;;;;;;26.52;14.77;;;;;;;15.85;100.00;101396.25;5037764;28;20021;-83
2022/09/12 09:03:38;;;;;;;33.30;17.77;;;;;;;15.99;100.00;101389.63;5049009;28;20047;-83
2022/09/12 09:06:41;;;;;;;26.40;15.30;;;;;;;16.01;100.00;101385.78;5050640;28;20043;-83
2022/09/12 09:09:24;;;;;;;29.30;15.60;;;;;;;16.15;100.00;101395.44;5042178;28;20037;-83
2022/09/12 09:12:18;;;;;;;25.45;14.70;;;;;;;16.26;100.00;101380.91;5043669;28;20464;-83
2022/09/12 09:15:01;;;;;;;24.88;14.00;;;;;;;16.32;100.00;101380.34;5029232;28;20464;-83
2022/09/12 09:17:34;;;;;;;24.52;13.55;;;;;;;16.30;100.00;101382.34;5049261;28;20035;-82
2022/09/12 09:20:38;;;;;;;24.20;12.68;;;;;;;16.42;100.00;101377.69;5049353;28;20599;-83
2022/09/12 09:23:16;;;;;;;23.33;11.38;;;;;;;16.42;100.00;101381.25;5049134;28;20493;-83
2022/09/12 09:25:49;;;;;;;23.00;11.70;;;;;;;16.48;100.00;101390.69;5048272;28;20021;-83
2022/09/12 09:28:29;;;;;;;21.35;11.30;;;;;;;16.48;100.00;101385.25;5049112;28;20369;-83
2022/09/12 09:30:55;;;;;;;24.65;12.00;;;;;;;16.53;99.98;101376.69;5050115;28;20025;-83
2022/09/12 09:33:27;;;;;;;23.10;11.35;;;;;;;16.72;100.00;101384.91;5049508;28;20025;-83
2022/09/12 09:36:00;;;;;;;24.67;12.50;;;;;;;16.71;100.00;101374.19;5050346;28;20048;-83
2022/09/12 09:38:48;;;;;;;24.83;12.95;;;;;;;16.81;100.00;101374.19;5049212;28;20086;-83
2022/09/12 09:41:26;;;;;;;26.27;10.03;;;;;;;16.90;100.00;101368.81;5052592;28;20575;-83
2022/09/12 09:43:51;;;;;;;23.50;10.75;;;;;;;16.99;97.59;101367.13;5047874;28;20086;-83
2022/09/12 09:46:17;;;;;;;24.85;12.15;;;;;;;17.09;96.20;101364.41;5032299;28;20128;-82
2022/09/12 09:48:46;;;;;;;23.38;11.07;;;;;;;17.16;96.83;101370.13;5042335;28;20071;-82
2022/09/12 09:51:14;;;;;;;23.25;11.18;;;;;;;17.22;95.50;101366.81;5053077;28;20476;-82
2022/09/12 09:53:43;;;;;;;20.70;9.95;;;;;;;17.22;94.81;101359.53;5053739;28;20555;-83
2022/09/12 09:56:23;;;;;;;;;;;;;;;17.27;98.60;101348.25;5053943;28;20484;-82
2022/09/12 09:58:48;;;;;;;23.02;9.63;;;;;;;17.37;93.36;101342.81;5052315;28;19990;-82
2022/09/12 10:01:16;;;;;;;23.27;10.57;;;;;;;17.45;94.25;101342.91;5044276;28;20053;-83
2022/09/12 10:03:53;;;;;;;20.73;10.77;;;;;;;17.49;92.92;101340.78;5038885;28;20456;-83
2022/09/12 10:06:18;;;;;;;20.88;9.57;;;;;;;17.49;92.62;101336.19;5051402;28;20024;-82
2022/09/12 10:08:44;;;;;;;22.27;11.00;;;;;;;17.55;92.62;101337.47;5052753;28;20108;-82
2022/09/12 10:11:15;;;;;;;21.55;9.73;;;;;;;17.63;92.18;101332.19;5052952;28;20434;-82
2022/09/12 10:14:00;;;;;;;22.88;9.35;;;;;;;17.64;94.24;101332.03;5051967;28;20025;-82
2022/09/12 10:16:29;;;;;;;20.65;10.05;;;;;;;17.63;93.83;101327.59;5051686;28;20648;-82
2022/09/12 10:19:02;;;;;;;20.90;9.32;;;;;;;17.72;92.01;101325.00;5053526;28;20025;-82
2022/09/12 10:21:33;;;;;;;21.73;9.32;;;;;;;17.80;91.28;101317.81;5051859;28;20540;-82
2022/09/12 10:23:59;;;;;;;22.50;10.82;;;;;;;17.87;90.00;101326.22;5031270;28;20029;-83
2022/09/12 10:26:25;;;;;;;20.25;9.70;;;;;;;17.88;91.60;101308.91;5038578;28;20086;-81
2022/09/12 10:28:55;;;;;;;21.58;7.70;;;;;;;17.84;91.65;101309.38;5045133;28;20024;-82
2022/09/12 10:31:27;;;;;;;17.20;6.65;;;;;;;17.80;90.62;101312.38;5050741;28;20025;-82
2022/09/12 10:33:56;;;;;;;18.02;7.20;;;;;;;17.81;89.53;101303.19;5049091;28;20483;-82
2022/09/12 10:36:23;;;;;;;21.15;9.20;;;;;;;17.93;88.29;101301.19;5052244;28;20028;-82
2022/09/12 10:38:59;;;;;;;18.08;7.22;;;;;;;17.92;90.35;101299.50;5039354;28;20116;-82
2022/09/12 10:41:25;;;;;;;19.50;7.88;;;;;;;18.03;86.61;101294.84;5051947;28;20028;-82
2022/09/12 10:43:50;;;;;;;17.67;6.88;;;;;;;18.05;87.93;101293.69;5043356;28;20063;-82
2022/09/12 10:46:18;;;;;;;16.73;6.75;;;;;;;18.09;86.96;101292.38;5031208;28;20386;-81
2022/09/12 10:48:45;;;;;;;17.90;6.65;;;;;;;18.21;87.19;101286.75;5031570;28;20045;-82
2022/09/12 10:51:20;;;;;;;17.15;6.78;;;;;;;18.26;87.94;101284.41;5030161;28;20116;-82
2022/09/12 10:53:45;;;;;;;19.15;7.30;;;;;;;18.28;84.77;101279.69;5046370;28;20032;-81
2022/09/12 10:56:27;;;;;;;18.35;6.65;;;;;;;18.30;86.64;101280.38;5045989;28;20021;-81
2022/09/12 10:59:14;;;;;;;19.52;6.30;;;;;;;18.33;84.56;101267.34;5048052;28;20041;-81
2022/09/12 11:01:43;;;;;;;22.98;5.85;;;;;;;18.52;84.93;101266.34;5047072;28;20041;-82
2022/09/12 11:04:46;;;;;;;17.77;6.57;;;;;;;18.53;85.81;101264.47;5046202;28;20024;-81
2022/09/12 11:07:29;;;;;;;15.63;5.85;;;;;;;18.56;85.48;101263.31;5061575;28;20029;-81
2022/09/12 11:10:16;;;;;;;14.40;4.72;;;;;;;18.57;82.97;101265.03;5058954;28;20052;-81
2022/09/12 11:13:07;;;;;;;13.00;5.20;;;;;;;18.58;84.61;101266.72;5048467;28;20033;-81
2022/09/12 11:16:10;;;;;;;16.17;5.95;;;;;;;18.60;85.05;101267.44;5034498;28;20124;-81
2022/09/12 11:19:18;;;;;;;15.02;5.57;;;;;;;18.59;84.46;101268.44;5038850;28;20028;-81
2022/09/12 11:22:16;;;;;;;15.20;5.25;;;;;;;18.59;83.94;101263.00;5050056;28;20033;-82